createdAt,value
2023-04-02T00:00:19.875Z,6.29
2023-04-02T00:03:44.496Z,6.36
2023-04-02T00:06:45.149Z,6.43
2023-04-02T00:09:38.019Z,6.54
2023-04-02T00:12:26.319Z,6.62
2023-04-02T00:15:15.242Z,6.64
2023-04-02T00:18:06.339Z,6.65
2023-04-02T00:21:14.579Z,6.54
2023-04-02T00:24:14.494Z,6.38
2023-04-02T00:27:02.847Z,6.43
2023-04-02T00:29:55.200Z,6.34
2023-04-02T00:32:46.144Z,6.28
2023-04-02T00:35:39.653Z,6.17
2023-04-02T00:38:34.401Z,6.17
2023-04-02T00:41:31.082Z,6.18
2023-04-02T00:44:24.168Z,6.13
2023-04-02T00:47:34.878Z,6.34
2023-04-02T00:50:41.216Z,6.50
2023-04-02T00:53:32.050Z,5.36
2023-04-02T00:56:31.624Z,4.78
2023-04-02T00:59:32.018Z,5.29
2023-04-02T01:02:33.032Z,5.80
2023-04-02T01:05:23.942Z,6.17
2023-04-02T01:08:52.821Z,6.25
2023-04-02T01:12:01.326Z,6.43
2023-04-02T01:15:51.912Z,6.53
2023-04-02T01:19:13.925Z,6.43
2023-04-02T01:22:02.212Z,5.90
2023-04-02T01:24:50.560Z,4.93
2023-04-02T01:28:10.444Z,5.19
2023-04-02T01:31:02.431Z,5.64
2023-04-02T01:33:50.935Z,5.93
2023-04-02T01:37:11.604Z,6.13
2023-04-02T01:40:13.224Z,6.39
2023-04-02T01:43:17.222Z,6.09
2023-04-02T01:46:26.101Z,4.97
2023-04-02T01:49:18.947Z,5.18
2023-04-02T01:52:08.072Z,5.63
2023-04-02T01:54:57.820Z,6.00
2023-04-02T01:57:53.815Z,6.29
2023-04-02T02:00:55.885Z,6.27
2023-04-02T02:03:45.351Z,6.23
2023-04-02T02:06:33.927Z,6.36
2023-04-02T02:09:27.066Z,6.04
2023-04-02T02:12:16.506Z,4.99
2023-04-02T02:15:13.566Z,4.80
2023-04-02T02:18:11.514Z,5.45
2023-04-02T02:21:05.125Z,5.92
2023-04-02T02:23:56.306Z,6.34
2023-04-02T02:26:47.733Z,6.35
2023-04-02T02:29:41.177Z,5.20
2023-04-02T02:32:33.348Z,4.62
2023-04-02T02:35:29.857Z,5.17
2023-04-02T02:38:38.943Z,5.86
2023-04-02T02:41:45.781Z,6.28
2023-04-02T02:44:42.079Z,6.57
2023-04-02T02:47:35.118Z,6.31
2023-04-02T02:50:32.001Z,5.10
2023-04-02T02:53:25.303Z,4.69
2023-04-02T02:56:16.634Z,5.40
2023-04-02T02:59:11.825Z,5.92
2023-04-02T03:02:09.394Z,6.20
2023-04-02T03:05:18.120Z,6.21
2023-04-02T03:08:30.537Z,6.45
2023-04-02T03:11:44.431Z,6.56
2023-04-02T03:14:49.201Z,5.46
2023-04-02T03:17:49.440Z,5.00
2023-04-02T03:20:58.557Z,5.65
2023-04-02T03:23:55.107Z,6.20
2023-04-02T03:27:11.092Z,6.31
2023-04-02T03:30:47.948Z,6.30
2023-04-02T03:33:48.068Z,5.12
2023-04-02T03:36:51.362Z,4.67
2023-04-02T03:39:55.854Z,5.47
2023-04-02T03:43:19.515Z,6.08
2023-04-02T03:46:28.828Z,6.41
2023-04-02T03:49:34.448Z,6.40
2023-04-02T03:52:29.681Z,5.35
2023-04-02T03:55:26.301Z,4.85
2023-04-02T03:58:27.435Z,5.56
2023-04-02T04:02:08.029Z,6.14
2023-04-02T04:04:58.632Z,6.39
2023-04-02T04:07:50.486Z,6.30
2023-04-02T04:10:43.459Z,5.11
2023-04-02T04:13:47.422Z,4.99
2023-04-02T04:17:23.962Z,5.65
2023-04-02T04:20:28.731Z,6.26
2023-04-02T04:23:32.744Z,6.18
2023-04-02T04:26:35.116Z,4.95
2023-04-02T04:29:58.671Z,4.94
2023-04-02T04:33:23.167Z,5.70
2023-04-02T04:36:31.689Z,6.24
2023-04-02T04:39:34.918Z,6.07
2023-04-02T04:42:38.172Z,4.93
2023-04-02T04:45:40.357Z,4.83
2023-04-02T04:48:42.866Z,5.77
2023-04-02T04:51:46.996Z,6.56
2023-04-02T04:54:39.441Z,6.62
2023-04-02T04:57:37.113Z,5.48
2023-04-02T05:00:51.353Z,4.65
2023-04-02T05:04:06.522Z,5.24
2023-04-02T05:07:07.608Z,5.94
2023-04-02T05:10:31.043Z,6.34
2023-04-02T05:13:34.846Z,5.98
2023-04-02T05:16:54.599Z,4.95
2023-04-02T05:19:53.636Z,5.13
2023-04-02T05:23:58.064Z,6.14
2023-04-02T05:26:50.950Z,6.50
2023-04-02T05:29:45.669Z,6.68
2023-04-02T05:32:47.185Z,6.74
2023-04-02T05:35:41.071Z,5.59
2023-04-02T05:38:33.282Z,5.09
2023-04-02T05:41:39.257Z,5.71
2023-04-02T05:44:36.832Z,6.31
2023-04-02T05:47:32.172Z,6.60
2023-04-02T05:50:48.523Z,6.33
2023-04-02T05:53:56.350Z,5.19
2023-04-02T05:56:49.846Z,5.55
2023-04-02T05:59:47.559Z,6.27
2023-04-02T06:03:09.186Z,6.62
2023-04-02T06:06:04.646Z,5.52
2023-04-02T06:09:12.500Z,4.94
2023-04-02T06:12:38.012Z,5.80
2023-04-02T06:15:26.990Z,6.42
2023-04-02T06:18:25.145Z,6.71
2023-04-02T06:21:17.659Z,6.25
2023-04-02T06:24:19.734Z,5.33
2023-04-02T06:27:12.552Z,5.78
2023-04-02T06:30:06.891Z,6.53
2023-04-02T06:32:54.337Z,6.64
2023-04-02T06:36:23.706Z,5.66
2023-04-02T06:39:22.600Z,5.41
2023-04-02T06:42:21.810Z,6.35
2023-04-02T06:45:42.903Z,7.04
2023-04-02T06:49:06.956Z,6.37
2023-04-02T06:51:58.464Z,5.39
2023-04-02T06:54:46.827Z,5.72
2023-04-02T06:57:35.435Z,6.67
2023-04-02T07:00:45.222Z,6.82
2023-04-02T07:03:53.498Z,5.95
2023-04-02T07:07:06.634Z,5.94
2023-04-02T07:09:57.311Z,6.94
2023-04-02T07:12:44.183Z,6.69
2023-04-02T07:15:32.257Z,5.98
2023-04-02T07:18:31.475Z,5.47
2023-04-02T07:21:21.710Z,5.99
2023-04-02T07:24:36.644Z,7.09
2023-04-02T07:27:25.773Z,7.44
2023-04-02T07:30:13.109Z,6.74
2023-04-02T07:33:05.309Z,6.18
2023-04-02T07:35:54.640Z,5.92
2023-04-02T07:38:42.018Z,6.50
2023-04-02T07:41:29.750Z,7.39
2023-04-02T07:44:16.765Z,7.08
2023-04-02T07:47:04.469Z,6.58
2023-04-02T07:49:54.074Z,6.13
2023-04-02T07:52:42.057Z,5.83
2023-04-02T07:55:31.890Z,6.00
2023-04-02T07:58:18.962Z,6.92
2023-04-02T08:01:25.587Z,6.74
2023-04-02T08:04:30.909Z,6.28
2023-04-02T08:07:18.572Z,5.99
2023-04-02T08:10:14.365Z,5.83
2023-04-02T08:13:01.262Z,5.69
2023-04-02T08:15:48.376Z,5.56
2023-04-02T08:18:38.453Z,5.59
2023-04-02T08:21:25.742Z,6.62
2023-04-02T08:24:23.659Z,7.66
2023-04-02T08:27:14.672Z,7.40
2023-04-02T08:30:01.792Z,7.29
2023-04-02T08:32:48.923Z,7.43
2023-04-02T08:35:36.613Z,8.30
2023-04-02T08:38:25.365Z,9.32
2023-04-02T08:41:28.135Z,10.32
2023-04-02T08:44:36.243Z,11.21
2023-04-02T08:47:29.422Z,11.94
2023-04-02T08:50:36.065Z,12.80
2023-04-02T08:53:30.550Z,13.82
2023-04-02T08:56:51.880Z,15.11
2023-04-02T08:59:42.957Z,16.09
2023-04-02T09:02:57.089Z,16.60
2023-04-02T09:05:46.695Z,17.46
2023-04-02T09:08:35.091Z,17.55
2023-04-02T09:11:41.308Z,17.62
2023-04-02T09:15:17.922Z,17.53
2023-04-02T09:18:17.571Z,17.64
2023-04-02T09:21:41.355Z,17.46
2023-04-02T09:24:28.444Z,17.24
2023-04-02T09:27:22.817Z,16.77
2023-04-02T09:30:12.724Z,16.66
2023-04-02T09:33:09.269Z,16.45
2023-04-02T09:35:57.306Z,16.06
2023-04-02T09:39:00.863Z,15.99
2023-04-02T09:41:59.075Z,16.11
2023-04-02T09:44:52.468Z,16.39
2023-04-02T09:47:42.290Z,17.14
2023-04-02T09:50:32.934Z,17.99
2023-04-02T09:53:32.750Z,18.42
2023-04-02T09:56:23.648Z,18.79
2023-04-02T09:59:13.376Z,19.02
2023-04-02T10:02:03.149Z,19.33
2023-04-02T10:04:51.159Z,19.02
2023-04-02T10:07:48.798Z,18.87
2023-04-02T10:10:45.783Z,19.01
2023-04-02T10:13:55.956Z,18.85
2023-04-02T10:17:24.588Z,18.92
2023-04-02T10:20:25.902Z,19.44
2023-04-02T10:23:17.934Z,19.44
2023-04-02T10:26:38.026Z,19.73
2023-04-02T10:29:51.100Z,20.08
2023-04-02T10:32:56.452Z,20.43
2023-04-02T10:36:20.988Z,21.08
2023-04-02T10:39:26.843Z,21.55
2023-04-02T10:42:44.419Z,21.55
2023-04-02T10:45:48.641Z,21.65
2023-04-02T10:48:57.365Z,21.35
2023-04-02T10:52:13.226Z,20.96
2023-04-02T10:55:34.687Z,20.82
2023-04-02T10:58:28.886Z,20.28
2023-04-02T11:01:23.373Z,19.77
2023-04-02T11:04:45.712Z,19.88
2023-04-02T11:07:52.747Z,19.37
2023-04-02T11:10:46.831Z,18.71
2023-04-02T11:13:48.803Z,18.54
2023-04-02T11:16:39.358Z,17.86
2023-04-02T11:19:32.584Z,17.08
2023-04-02T11:22:24.390Z,16.99
2023-04-02T11:25:22.674Z,16.87
2023-04-02T11:28:31.220Z,17.09
2023-04-02T11:31:21.414Z,16.99
2023-04-02T11:34:40.385Z,16.27
2023-04-02T11:37:46.691Z,15.27
2023-04-02T11:40:57.535Z,15.32
2023-04-02T11:43:49.036Z,15.08
